Terminal Aerodrome Forecast
Issued by NWS Flagstaff, AZ

Home | Current Version | Previous Version | Text Only | Print | Product List | Glossary On
Versions: 1 2 3 4 5 6 7 8 9 10 11 12 13 14 15 16
000
FTUS45 KFGZ 262003 AAA
TAFFLG
TAF AMD
KFLG 262003Z 2620/2718 22010G20KT P6SM FEW025 SCT030 BKN040
     FM270100 22010KT P6SM BKN030 BKN150
     FM270900 22014G24KT P6SM OVC030=

USA.gov is the U.S. government's official web portal to all federal, state and local government web resources and services.